sensor_id;sensor_type;location;lat;lon;timestamp;P1;durP1;ratioP1;P2;durP2;ratioP2
9888;SDS011;4983;42.112;24.738;2023-03-24T00:00:29;37.07;;;32.50;;
9888;SDS011;4983;42.112;24.738;2023-03-24T00:02:56;40.50;;;35.40;;
9888;SDS011;4983;42.112;24.738;2023-03-24T00:05:25;46.50;;;37.70;;
9888;SDS011;4983;42.112;24.738;2023-03-24T00:07:52;45.83;;;36.63;;
9888;SDS011;4983;42.112;24.738;2023-03-24T00:10:19;44.23;;;35.80;;
9888;SDS011;4983;42.112;24.738;2023-03-24T00:12:47;46.83;;;39.77;;
9888;SDS011;4983;42.112;24.738;2023-03-24T00:15:14;44.00;;;38.17;;
9888;SDS011;4983;42.112;24.738;2023-03-24T00:17:45;42.33;;;36.20;;
9888;SDS011;4983;42.112;24.738;2023-03-24T00:20:15;43.93;;;37.23;;
9888;SDS011;4983;42.112;24.738;2023-03-24T00:22:44;39.83;;;34.63;;
9888;SDS011;4983;42.112;24.738;2023-03-24T00:25:13;46.57;;;39.70;;
9888;SDS011;4983;42.112;24.738;2023-03-24T00:27:41;41.27;;;36.03;;
9888;SDS011;4983;42.112;24.738;2023-03-24T00:30:10;37.67;;;33.13;;
9888;SDS011;4983;42.112;24.738;2023-03-24T00:32:37;40.67;;;33.60;;
9888;SDS011;4983;42.112;24.738;2023-03-24T00:35:07;35.70;;;31.77;;
9888;SDS011;4983;42.112;24.738;2023-03-24T00:37:33;37.37;;;33.37;;
9888;SDS011;4983;42.112;24.738;2023-03-24T00:40:02;36.50;;;32.60;;
9888;SDS011;4983;42.112;24.738;2023-03-24T00:42:31;45.17;;;36.03;;
9888;SDS011;4983;42.112;24.738;2023-03-24T00:44:58;42.47;;;34.97;;
9888;SDS011;4983;42.112;24.738;2023-03-24T00:47:25;37.50;;;33.40;;
9888;SDS011;4983;42.112;24.738;2023-03-24T00:49:52;37.57;;;32.90;;
9888;SDS011;4983;42.112;24.738;2023-03-24T00:52:23;38.27;;;33.03;;
9888;SDS011;4983;42.112;24.738;2023-03-24T00:54:51;38.03;;;32.93;;
9888;SDS011;4983;42.112;24.738;2023-03-24T00:57:19;41.83;;;33.70;;
9888;SDS011;4983;42.112;24.738;2023-03-24T00:59:47;40.70;;;34.77;;
9888;SDS011;4983;42.112;24.738;2023-03-24T01:02:14;44.30;;;38.87;;
9888;SDS011;4983;42.112;24.738;2023-03-24T01:04:40;41.00;;;36.27;;
9888;SDS011;4983;42.112;24.738;2023-03-24T01:07:11;45.37;;;37.73;;
9888;SDS011;4983;42.112;24.738;2023-03-24T01:09:44;39.70;;;34.17;;
9888;SDS011;4983;42.112;24.738;2023-03-24T01:12:16;36.93;;;31.40;;
9888;SDS011;4983;42.112;24.738;2023-03-24T01:14:43;39.67;;;31.23;;
9888;SDS011;4983;42.112;24.738;2023-03-24T01:17:10;32.73;;;29.10;;
9888;SDS011;4983;42.112;24.738;2023-03-24T01:19:37;36.40;;;31.07;;
9888;SDS011;4983;42.112;24.738;2023-03-24T01:22:05;31.90;;;28.40;;
9888;SDS011;4983;42.112;24.738;2023-03-24T01:24:31;33.13;;;29.53;;
9888;SDS011;4983;42.112;24.738;2023-03-24T01:26:59;34.17;;;29.83;;
9888;SDS011;4983;42.112;24.738;2023-03-24T01:29:26;35.20;;;30.87;;
9888;SDS011;4983;42.112;24.738;2023-03-24T01:31:53;36.13;;;30.20;;
9888;SDS011;4983;42.112;24.738;2023-03-24T01:34:20;35.77;;;30.40;;
9888;SDS011;4983;42.112;24.738;2023-03-24T01:36:46;33.37;;;29.77;;
9888;SDS011;4983;42.112;24.738;2023-03-24T01:39:13;34.00;;;29.83;;
9888;SDS011;4983;42.112;24.738;2023-03-24T01:41:40;32.93;;;29.30;;
9888;SDS011;4983;42.112;24.738;2023-03-24T01:44:25;34.00;;;29.63;;
9888;SDS011;4983;42.112;24.738;2023-03-24T01:46:52;31.80;;;28.30;;
9888;SDS011;4983;42.112;24.738;2023-03-24T01:49:19;31.53;;;27.77;;
9888;SDS011;4983;42.112;24.738;2023-03-24T01:51:46;31.40;;;28.10;;
9888;SDS011;4983;42.112;24.738;2023-03-24T01:54:15;32.13;;;28.57;;
9888;SDS011;4983;42.112;24.738;2023-03-24T01:56:45;32.57;;;28.20;;
9888;SDS011;4983;42.112;24.738;2023-03-24T01:59:15;30.00;;;26.77;;
9888;SDS011;4983;42.112;24.738;2023-03-24T02:01:45;29.93;;;26.73;;
9888;SDS011;4983;42.112;24.738;2023-03-24T02:04:12;29.50;;;26.30;;
9888;SDS011;4983;42.112;24.738;2023-03-24T02:06:40;29.63;;;26.37;;
9888;SDS011;4983;42.112;24.738;2023-03-24T02:09:09;34.93;;;30.83;;
9888;SDS011;4983;42.112;24.738;2023-03-24T02:11:36;33.93;;;30.43;;
9888;SDS011;4983;42.112;24.738;2023-03-24T02:14:04;36.93;;;33.00;;
9888;SDS011;4983;42.112;24.738;2023-03-24T02:16:39;34.90;;;31.07;;
9888;SDS011;4983;42.112;24.738;2023-03-24T02:22:15;27.20;;;23.90;;
9888;SDS011;4983;42.112;24.738;2023-03-24T02:30:51;25.77;;;23.07;;
9888;SDS011;4983;42.112;24.738;2023-03-24T02:33:32;27.10;;;23.37;;
9888;SDS011;4983;42.112;24.738;2023-03-24T02:36:25;25.37;;;22.63;;
9888;SDS011;4983;42.112;24.738;2023-03-24T02:39:10;25.53;;;22.23;;
9888;SDS011;4983;42.112;24.738;2023-03-24T02:41:39;25.10;;;21.40;;
9888;SDS011;4983;42.112;24.738;2023-03-24T02:44:13;21.33;;;19.07;;
9888;SDS011;4983;42.112;24.738;2023-03-24T02:46:44;21.10;;;18.80;;
9888;SDS011;4983;42.112;24.738;2023-03-24T02:49:17;22.10;;;19.33;;
9888;SDS011;4983;42.112;24.738;2023-03-24T02:51:47;22.00;;;18.73;;
9888;SDS011;4983;42.112;24.738;2023-03-24T02:54:17;21.13;;;18.27;;
9888;SDS011;4983;42.112;24.738;2023-03-24T02:56:45;22.77;;;19.50;;
9888;SDS011;4983;42.112;24.738;2023-03-24T02:59:15;23.17;;;20.73;;
9888;SDS011;4983;42.112;24.738;2023-03-24T03:01:44;23.07;;;20.50;;
9888;SDS011;4983;42.112;24.738;2023-03-24T03:04:19;21.97;;;19.67;;
9888;SDS011;4983;42.112;24.738;2023-03-24T03:06:48;22.63;;;19.60;;
9888;SDS011;4983;42.112;24.738;2023-03-24T03:09:18;22.73;;;19.67;;
9888;SDS011;4983;42.112;24.738;2023-03-24T03:11:47;21.57;;;19.27;;
9888;SDS011;4983;42.112;24.738;2023-03-24T03:14:16;24.60;;;22.00;;
9888;SDS011;4983;42.112;24.738;2023-03-24T03:16:44;36.97;;;33.27;;
9888;SDS011;4983;42.112;24.738;2023-03-24T03:19:16;37.40;;;33.60;;
9888;SDS011;4983;42.112;24.738;2023-03-24T03:21:43;28.53;;;25.63;;
9888;SDS011;4983;42.112;24.738;2023-03-24T03:24:12;26.57;;;23.77;;
9888;SDS011;4983;42.112;24.738;2023-03-24T03:26:42;23.77;;;21.33;;
9888;SDS011;4983;42.112;24.738;2023-03-24T03:29:12;22.37;;;19.97;;
9888;SDS011;4983;42.112;24.738;2023-03-24T03:31:41;21.37;;;19.07;;
9888;SDS011;4983;42.112;24.738;2023-03-24T03:34:10;27.77;;;24.80;;
9888;SDS011;4983;42.112;24.738;2023-03-24T03:36:40;37.17;;;33.50;;
9888;SDS011;4983;42.112;24.738;2023-03-24T03:39:11;32.23;;;28.83;;
9888;SDS011;4983;42.112;24.738;2023-03-24T03:41:41;20.33;;;16.57;;
9888;SDS011;4983;42.112;24.738;2023-03-24T03:44:08;16.47;;;14.77;;
9888;SDS011;4983;42.112;24.738;2023-03-24T03:46:35;17.37;;;15.03;;
9888;SDS011;4983;42.112;24.738;2023-03-24T03:49:03;16.93;;;14.47;;
9888;SDS011;4983;42.112;24.738;2023-03-24T03:51:31;15.50;;;13.90;;
9888;SDS011;4983;42.112;24.738;2023-03-24T03:54:00;14.87;;;12.93;;
9888;SDS011;4983;42.112;24.738;2023-03-24T03:56:28;13.93;;;12.53;;
9888;SDS011;4983;42.112;24.738;2023-03-24T03:58:57;15.67;;;14.03;;
9888;SDS011;4983;42.112;24.738;2023-03-24T04:01:24;17.43;;;15.67;;
9888;SDS011;4983;42.112;24.738;2023-03-24T04:03:56;15.97;;;14.37;;
9888;SDS011;4983;42.112;24.738;2023-03-24T04:06:26;16.20;;;14.50;;
9888;SDS011;4983;42.112;24.738;2023-03-24T04:08:59;18.17;;;14.83;;
9888;SDS011;4983;42.112;24.738;2023-03-24T04:14:20;21.17;;;16.07;;
9888;SDS011;4983;42.112;24.738;2023-03-24T04:16:50;18.40;;;15.83;;
9888;SDS011;4983;42.112;24.738;2023-03-24T04:19:31;20.70;;;16.57;;
9888;SDS011;4983;42.112;24.738;2023-03-24T04:22:08;18.40;;;16.03;;
9888;SDS011;4983;42.112;24.738;2023-03-24T04:24:39;18.90;;;16.47;;
9888;SDS011;4983;42.112;24.738;2023-03-24T04:27:09;17.77;;;15.87;;
9888;SDS011;4983;42.112;24.738;2023-03-24T04:29:42;19.53;;;17.43;;
9888;SDS011;4983;42.112;24.738;2023-03-24T04:32:12;24.13;;;21.43;;
9888;SDS011;4983;42.112;24.738;2023-03-24T04:34:44;20.67;;;17.37;;
9888;SDS011;4983;42.112;24.738;2023-03-24T04:37:15;18.70;;;15.47;;
9888;SDS011;4983;42.112;24.738;2023-03-24T04:39:45;14.00;;;12.13;;
9888;SDS011;4983;42.112;24.738;2023-03-24T04:42:13;12.07;;;10.87;;
9888;SDS011;4983;42.112;24.738;2023-03-24T04:44:44;13.00;;;11.70;;
9888;SDS011;4983;42.112;24.738;2023-03-24T04:47:11;15.50;;;13.70;;
9888;SDS011;4983;42.112;24.738;2023-03-24T04:49:38;15.20;;;12.80;;
9888;SDS011;4983;42.112;24.738;2023-03-24T04:52:05;14.70;;;13.20;;
9888;SDS011;4983;42.112;24.738;2023-03-24T04:54:32;14.63;;;13.10;;
9888;SDS011;4983;42.112;24.738;2023-03-24T04:56:59;15.63;;;14.07;;
9888;SDS011;4983;42.112;24.738;2023-03-24T04:59:27;18.37;;;16.20;;
9888;SDS011;4983;42.112;24.738;2023-03-24T05:01:55;17.70;;;15.80;;
9888;SDS011;4983;42.112;24.738;2023-03-24T05:04:26;17.23;;;15.53;;
9888;SDS011;4983;42.112;24.738;2023-03-24T05:06:54;18.43;;;15.70;;
9888;SDS011;4983;42.112;24.738;2023-03-24T05:09:21;17.23;;;15.50;;
9888;SDS011;4983;42.112;24.738;2023-03-24T05:11:48;17.97;;;16.07;;
9888;SDS011;4983;42.112;24.738;2023-03-24T05:14:15;18.63;;;16.70;;
9888;SDS011;4983;42.112;24.738;2023-03-24T05:16:42;20.47;;;18.37;;
9888;SDS011;4983;42.112;24.738;2023-03-24T05:19:10;20.27;;;18.07;;
9888;SDS011;4983;42.112;24.738;2023-03-24T05:21:37;23.67;;;19.83;;
9888;SDS011;4983;42.112;24.738;2023-03-24T05:24:04;28.57;;;21.17;;
9888;SDS011;4983;42.112;24.738;2023-03-24T05:26:31;31.33;;;21.93;;
9888;SDS011;4983;42.112;24.738;2023-03-24T05:28:57;28.67;;;19.77;;
9888;SDS011;4983;42.112;24.738;2023-03-24T05:31:24;28.00;;;19.67;;
9888;SDS011;4983;42.112;24.738;2023-03-24T05:33:51;21.17;;;17.70;;
9888;SDS011;4983;42.112;24.738;2023-03-24T05:36:19;23.87;;;18.70;;
9888;SDS011;4983;42.112;24.738;2023-03-24T05:38:45;22.40;;;18.67;;
9888;SDS011;4983;42.112;24.738;2023-03-24T05:41:12;23.00;;;18.73;;
9888;SDS011;4983;42.112;24.738;2023-03-24T05:43:40;23.07;;;20.40;;
9888;SDS011;4983;42.112;24.738;2023-03-24T05:46:07;22.63;;;19.77;;
9888;SDS011;4983;42.112;24.738;2023-03-24T05:48:35;27.73;;;24.27;;
9888;SDS011;4983;42.112;24.738;2023-03-24T05:51:02;23.30;;;20.13;;
9888;SDS011;4983;42.112;24.738;2023-03-24T05:53:31;22.13;;;19.17;;
9888;SDS011;4983;42.112;24.738;2023-03-24T05:55:57;22.53;;;20.30;;
9888;SDS011;4983;42.112;24.738;2023-03-24T05:58:24;20.73;;;18.53;;
9888;SDS011;4983;42.112;24.738;2023-03-24T06:00:51;19.83;;;17.73;;
9888;SDS011;4983;42.112;24.738;2023-03-24T06:03:19;21.13;;;18.43;;
9888;SDS011;4983;42.112;24.738;2023-03-24T06:05:46;20.90;;;18.33;;
9888;SDS011;4983;42.112;24.738;2023-03-24T06:08:13;21.03;;;18.70;;
9888;SDS011;4983;42.112;24.738;2023-03-24T06:10:42;24.30;;;20.97;;
9888;SDS011;4983;42.112;24.738;2023-03-24T06:13:09;30.03;;;26.63;;
9888;SDS011;4983;42.112;24.738;2023-03-24T06:15:36;24.23;;;20.87;;
9888;SDS011;4983;42.112;24.738;2023-03-24T06:18:03;25.97;;;21.60;;
9888;SDS011;4983;42.112;24.738;2023-03-24T06:20:31;26.60;;;22.27;;
9888;SDS011;4983;42.112;24.738;2023-03-24T06:22:58;23.70;;;20.60;;
9888;SDS011;4983;42.112;24.738;2023-03-24T06:25:24;25.00;;;22.07;;
9888;SDS011;4983;42.112;24.738;2023-03-24T06:27:55;25.33;;;21.07;;
9888;SDS011;4983;42.112;24.738;2023-03-24T06:30:28;21.90;;;19.60;;
9888;SDS011;4983;42.112;24.738;2023-03-24T06:32:54;23.93;;;20.87;;
9888;SDS011;4983;42.112;24.738;2023-03-24T06:35:21;25.00;;;22.43;;
9888;SDS011;4983;42.112;24.738;2023-03-24T06:37:48;20.30;;;17.80;;
9888;SDS011;4983;42.112;24.738;2023-03-24T06:40:14;21.27;;;18.13;;
9888;SDS011;4983;42.112;24.738;2023-03-24T06:42:43;21.23;;;18.93;;
9888;SDS011;4983;42.112;24.738;2023-03-24T06:45:12;19.60;;;17.60;;
9888;SDS011;4983;42.112;24.738;2023-03-24T06:47:38;20.23;;;16.20;;
9888;SDS011;4983;42.112;24.738;2023-03-24T06:50:05;17.27;;;15.33;;
9888;SDS011;4983;42.112;24.738;2023-03-24T06:52:33;16.57;;;14.43;;
9888;SDS011;4983;42.112;24.738;2023-03-24T06:55:00;16.70;;;15.00;;
9888;SDS011;4983;42.112;24.738;2023-03-24T06:57:26;17.27;;;15.47;;
9888;SDS011;4983;42.112;24.738;2023-03-24T06:59:53;18.13;;;14.50;;
9888;SDS011;4983;42.112;24.738;2023-03-24T07:02:21;16.20;;;14.10;;
9888;SDS011;4983;42.112;24.738;2023-03-24T07:04:49;17.20;;;14.07;;
9888;SDS011;4983;42.112;24.738;2023-03-24T07:07:18;15.40;;;12.93;;
9888;SDS011;4983;42.112;24.738;2023-03-24T07:09:47;14.37;;;11.23;;
9888;SDS011;4983;42.112;24.738;2023-03-24T07:12:15;15.33;;;12.33;;
9888;SDS011;4983;42.112;24.738;2023-03-24T07:14:42;14.10;;;11.30;;
9888;SDS011;4983;42.112;24.738;2023-03-24T07:17:09;14.03;;;11.00;;
9888;SDS011;4983;42.112;24.738;2023-03-24T07:19:37;16.73;;;12.43;;
9888;SDS011;4983;42.112;24.738;2023-03-24T07:22:04;13.53;;;10.97;;
9888;SDS011;4983;42.112;24.738;2023-03-24T07:24:32;12.67;;;11.37;;
9888;SDS011;4983;42.112;24.738;2023-03-24T07:26:59;15.97;;;11.47;;
9888;SDS011;4983;42.112;24.738;2023-03-24T07:29:25;14.03;;;10.90;;
9888;SDS011;4983;42.112;24.738;2023-03-24T07:31:52;14.40;;;11.73;;
9888;SDS011;4983;42.112;24.738;2023-03-24T07:34:22;14.83;;;11.37;;
9888;SDS011;4983;42.112;24.738;2023-03-24T07:36:51;14.60;;;11.77;;
9888;SDS011;4983;42.112;24.738;2023-03-24T07:39:17;13.10;;;11.13;;
9888;SDS011;4983;42.112;24.738;2023-03-24T07:41:46;14.43;;;12.47;;
9888;SDS011;4983;42.112;24.738;2023-03-24T07:44:13;16.80;;;13.80;;
9888;SDS011;4983;42.112;24.738;2023-03-24T07:46:40;19.10;;;12.70;;
9888;SDS011;4983;42.112;24.738;2023-03-24T07:49:06;25.03;;;13.50;;
9888;SDS011;4983;42.112;24.738;2023-03-24T07:51:33;17.97;;;13.00;;
9888;SDS011;4983;42.112;24.738;2023-03-24T07:54:02;16.80;;;13.90;;
9888;SDS011;4983;42.112;24.738;2023-03-24T07:56:28;28.43;;;14.80;;
9888;SDS011;4983;42.112;24.738;2023-03-24T07:58:55;21.40;;;14.87;;
9888;SDS011;4983;42.112;24.738;2023-03-24T08:01:22;19.17;;;15.47;;
9888;SDS011;4983;42.112;24.738;2023-03-24T08:03:49;22.53;;;15.03;;
9888;SDS011;4983;42.112;24.738;2023-03-24T08:06:18;19.73;;;14.97;;
9888;SDS011;4983;42.112;24.738;2023-03-24T08:08:45;16.17;;;13.87;;
9888;SDS011;4983;42.112;24.738;2023-03-24T08:11:13;18.43;;;14.50;;
9888;SDS011;4983;42.112;24.738;2023-03-24T08:13:41;17.03;;;14.70;;
9888;SDS011;4983;42.112;24.738;2023-03-24T08:16:07;17.67;;;14.93;;
9888;SDS011;4983;42.112;24.738;2023-03-24T08:18:34;16.67;;;14.73;;
9888;SDS011;4983;42.112;24.738;2023-03-24T08:21:01;21.17;;;16.37;;
9888;SDS011;4983;42.112;24.738;2023-03-24T08:23:28;20.27;;;16.17;;
9888;SDS011;4983;42.112;24.738;2023-03-24T08:25:54;20.87;;;16.47;;
9888;SDS011;4983;42.112;24.738;2023-03-24T08:28:23;19.07;;;16.87;;
9888;SDS011;4983;42.112;24.738;2023-03-24T08:30:50;30.90;;;17.40;;
9888;SDS011;4983;42.112;24.738;2023-03-24T08:33:17;22.83;;;16.60;;
9888;SDS011;4983;42.112;24.738;2023-03-24T08:35:44;17.63;;;15.80;;
9888;SDS011;4983;42.112;24.738;2023-03-24T08:38:11;21.20;;;16.50;;
9888;SDS011;4983;42.112;24.738;2023-03-24T08:40:39;21.07;;;15.07;;
9888;SDS011;4983;42.112;24.738;2023-03-24T08:43:08;18.00;;;11.93;;
9888;SDS011;4983;42.112;24.738;2023-03-24T08:45:36;21.97;;;13.93;;
9888;SDS011;4983;42.112;24.738;2023-03-24T08:48:04;17.07;;;15.17;;
9888;SDS011;4983;42.112;24.738;2023-03-24T08:50:32;17.73;;;13.83;;
9888;SDS011;4983;42.112;24.738;2023-03-24T08:52:59;18.33;;;15.70;;
9888;SDS011;4983;42.112;24.738;2023-03-24T08:55:26;28.10;;;17.10;;
9888;SDS011;4983;42.112;24.738;2023-03-24T08:57:52;16.60;;;14.60;;
9888;SDS011;4983;42.112;24.738;2023-03-24T09:00:20;45.63;;;18.63;;
9888;SDS011;4983;42.112;24.738;2023-03-24T09:02:49;46.93;;;17.53;;
9888;SDS011;4983;42.112;24.738;2023-03-24T09:05:16;24.90;;;17.30;;
9888;SDS011;4983;42.112;24.738;2023-03-24T09:07:44;20.70;;;17.53;;
9888;SDS011;4983;42.112;24.738;2023-03-24T09:10:11;21.40;;;17.60;;
9888;SDS011;4983;42.112;24.738;2023-03-24T09:12:38;25.03;;;17.33;;
9888;SDS011;4983;42.112;24.738;2023-03-24T09:15:05;22.03;;;17.80;;
9888;SDS011;4983;42.112;24.738;2023-03-24T09:17:34;42.87;;;17.47;;
9888;SDS011;4983;42.112;24.738;2023-03-24T09:20:03;18.47;;;16.37;;
9888;SDS011;4983;42.112;24.738;2023-03-24T09:22:32;20.40;;;17.30;;
9888;SDS011;4983;42.112;24.738;2023-03-24T09:24:59;54.93;;;19.37;;
9888;SDS011;4983;42.112;24.738;2023-03-24T09:27:26;26.63;;;15.97;;
9888;SDS011;4983;42.112;24.738;2023-03-24T09:29:53;16.83;;;15.10;;
9888;SDS011;4983;42.112;24.738;2023-03-24T09:32:20;22.23;;;16.00;;
9888;SDS011;4983;42.112;24.738;2023-03-24T09:34:47;19.70;;;16.43;;
9888;SDS011;4983;42.112;24.738;2023-03-24T09:37:18;155.37;;;28.60;;
9888;SDS011;4983;42.112;24.738;2023-03-24T09:39:45;36.27;;;18.63;;
9888;SDS011;4983;42.112;24.738;2023-03-24T09:42:14;96.77;;;22.57;;
9888;SDS011;4983;42.112;24.738;2023-03-24T09:44:45;40.87;;;17.40;;
9888;SDS011;4983;42.112;24.738;2023-03-24T09:47:15;21.03;;;15.50;;
9888;SDS011;4983;42.112;24.738;2023-03-24T09:49:47;20.37;;;15.60;;
9888;SDS011;4983;42.112;24.738;2023-03-24T09:52:14;19.23;;;16.13;;
9888;SDS011;4983;42.112;24.738;2023-03-24T09:54:47;16.60;;;14.93;;
9888;SDS011;4983;42.112;24.738;2023-03-24T09:57:16;23.00;;;14.67;;
9888;SDS011;4983;42.112;24.738;2023-03-24T09:59:44;19.73;;;13.27;;
9888;SDS011;4983;42.112;24.738;2023-03-24T10:02:13;19.33;;;15.13;;
9888;SDS011;4983;42.112;24.738;2023-03-24T10:04:40;20.27;;;14.53;;
9888;SDS011;4983;42.112;24.738;2023-03-24T10:07:08;15.67;;;13.77;;
9888;SDS011;4983;42.112;24.738;2023-03-24T10:09:39;21.87;;;14.17;;
9888;SDS011;4983;42.112;24.738;2023-03-24T10:12:13;19.10;;;13.80;;
9888;SDS011;4983;42.112;24.738;2023-03-24T10:14:49;26.13;;;14.40;;
9888;SDS011;4983;42.112;24.738;2023-03-24T10:17:22;40.70;;;15.03;;
9888;SDS011;4983;42.112;24.738;2023-03-24T10:19:52;31.07;;;17.87;;
9888;SDS011;4983;42.112;24.738;2023-03-24T10:22:22;25.37;;;15.67;;
9888;SDS011;4983;42.112;24.738;2023-03-24T10:24:53;27.37;;;16.80;;
9888;SDS011;4983;42.112;24.738;2023-03-24T10:27:23;21.83;;;14.63;;
9888;SDS011;4983;42.112;24.738;2023-03-24T10:29:53;27.10;;;12.50;;
9888;SDS011;4983;42.112;24.738;2023-03-24T10:32:22;237.63;;;88.00;;
9888;SDS011;4983;42.112;24.738;2023-03-24T10:34:52;131.50;;;54.13;;
9888;SDS011;4983;42.112;24.738;2023-03-24T10:37:19;39.13;;;17.03;;
9888;SDS011;4983;42.112;24.738;2023-03-24T10:39:47;25.50;;;13.60;;
9888;SDS011;4983;42.112;24.738;2023-03-24T10:42:14;17.50;;;12.40;;
9888;SDS011;4983;42.112;24.738;2023-03-24T10:44:44;28.17;;;13.70;;
9888;SDS011;4983;42.112;24.738;2023-03-24T10:47:11;15.37;;;12.53;;
9888;SDS011;4983;42.112;24.738;2023-03-24T10:49:43;25.67;;;15.43;;
9888;SDS011;4983;42.112;24.738;2023-03-24T10:52:16;22.33;;;14.07;;
9888;SDS011;4983;42.112;24.738;2023-03-24T10:54:52;17.60;;;13.30;;
9888;SDS011;4983;42.112;24.738;2023-03-24T10:57:18;29.50;;;14.60;;
9888;SDS011;4983;42.112;24.738;2023-03-24T10:59:49;35.70;;;13.63;;
9888;SDS011;4983;42.112;24.738;2023-03-24T11:02:19;18.27;;;13.03;;
9888;SDS011;4983;42.112;24.738;2023-03-24T11:04:49;16.80;;;12.70;;
9888;SDS011;4983;42.112;24.738;2023-03-24T11:07:18;19.80;;;11.57;;
9888;SDS011;4983;42.112;24.738;2023-03-24T11:09:46;12.97;;;11.40;;
9888;SDS011;4983;42.112;24.738;2023-03-24T11:12:20;47.77;;;14.93;;
9888;SDS011;4983;42.112;24.738;2023-03-24T11:14:49;12.63;;;10.73;;
9888;SDS011;4983;42.112;24.738;2023-03-24T11:17:19;13.57;;;11.23;;
9888;SDS011;4983;42.112;24.738;2023-03-24T11:19:50;16.90;;;10.33;;
9888;SDS011;4983;42.112;24.738;2023-03-24T11:22:17;11.93;;;10.07;;
9888;SDS011;4983;42.112;24.738;2023-03-24T11:24:44;13.10;;;10.73;;
9888;SDS011;4983;42.112;24.738;2023-03-24T11:27:12;39.60;;;13.87;;
9888;SDS011;4983;42.112;24.738;2023-03-24T11:29:41;11.97;;;10.77;;
9888;SDS011;4983;42.112;24.738;2023-03-24T11:32:11;15.63;;;11.43;;
9888;SDS011;4983;42.112;24.738;2023-03-24T11:34:38;11.80;;;10.23;;
9888;SDS011;4983;42.112;24.738;2023-03-24T11:37:06;11.77;;;10.13;;
9888;SDS011;4983;42.112;24.738;2023-03-24T11:39:36;14.83;;;10.83;;
9888;SDS011;4983;42.112;24.738;2023-03-24T11:42:04;11.50;;;9.43;;
9888;SDS011;4983;42.112;24.738;2023-03-24T11:44:39;17.63;;;13.13;;
9888;SDS011;4983;42.112;24.738;2023-03-24T11:47:08;18.93;;;14.37;;
9888;SDS011;4983;42.112;24.738;2023-03-24T11:49:37;19.20;;;12.33;;
9888;SDS011;4983;42.112;24.738;2023-03-24T11:52:06;13.87;;;11.60;;
9888;SDS011;4983;42.112;24.738;2023-03-24T11:54:36;12.17;;;10.50;;
9888;SDS011;4983;42.112;24.738;2023-03-24T11:57:04;12.77;;;9.87;;
9888;SDS011;4983;42.112;24.738;2023-03-24T11:59:34;12.90;;;10.33;;
9888;SDS011;4983;42.112;24.738;2023-03-24T12:02:15;15.30;;;11.20;;
9888;SDS011;4983;42.112;24.738;2023-03-24T12:04:58;15.53;;;9.50;;
9888;SDS011;4983;42.112;24.738;2023-03-24T12:07:37;9.27;;;8.20;;
9888;SDS011;4983;42.112;24.738;2023-03-24T12:10:10;13.77;;;9.23;;
9888;SDS011;4983;42.112;24.738;2023-03-24T12:12:40;15.30;;;8.63;;
9888;SDS011;4983;42.112;24.738;2023-03-24T12:15:23;10.50;;;7.10;;
9888;SDS011;4983;42.112;24.738;2023-03-24T12:17:54;13.73;;;7.87;;
9888;SDS011;4983;42.112;24.738;2023-03-24T12:20:26;10.50;;;7.77;;
9888;SDS011;4983;42.112;24.738;2023-03-24T12:22:56;10.53;;;7.80;;
9888;SDS011;4983;42.112;24.738;2023-03-24T12:25:28;19.83;;;8.50;;
9888;SDS011;4983;42.112;24.738;2023-03-24T12:27:59;25.20;;;8.80;;
9888;SDS011;4983;42.112;24.738;2023-03-24T12:30:32;20.90;;;7.93;;
9888;SDS011;4983;42.112;24.738;2023-03-24T12:33:20;7.20;;;6.50;;
9888;SDS011;4983;42.112;24.738;2023-03-24T12:35:54;8.07;;;6.97;;
9888;SDS011;4983;42.112;24.738;2023-03-24T12:38:24;15.97;;;7.97;;
9888;SDS011;4983;42.112;24.738;2023-03-24T12:41:01;30.10;;;8.17;;
9888;SDS011;4983;42.112;24.738;2023-03-24T12:43:30;18.93;;;7.43;;
9888;SDS011;4983;42.112;24.738;2023-03-24T12:46:02;6.27;;;5.77;;
9888;SDS011;4983;42.112;24.738;2023-03-24T12:48:43;8.63;;;6.37;;
9888;SDS011;4983;42.112;24.738;2023-03-24T12:51:17;22.90;;;7.10;;
9888;SDS011;4983;42.112;24.738;2023-03-24T12:53:54;11.03;;;5.60;;
9888;SDS011;4983;42.112;24.738;2023-03-24T12:56:26;6.67;;;6.07;;
9888;SDS011;4983;42.112;24.738;2023-03-24T12:58:57;6.70;;;5.50;;
9888;SDS011;4983;42.112;24.738;2023-03-24T13:01:26;9.33;;;5.63;;
9888;SDS011;4983;42.112;24.738;2023-03-24T13:03:57;16.50;;;6.47;;
9888;SDS011;4983;42.112;24.738;2023-03-24T13:06:29;49.87;;;9.50;;
9888;SDS011;4983;42.112;24.738;2023-03-24T13:09:01;6.20;;;5.60;;
9888;SDS011;4983;42.112;24.738;2023-03-24T13:11:33;9.93;;;5.60;;
9888;SDS011;4983;42.112;24.738;2023-03-24T13:14:02;8.37;;;5.53;;
9888;SDS011;4983;42.112;24.738;2023-03-24T13:16:30;6.00;;;5.27;;
9888;SDS011;4983;42.112;24.738;2023-03-24T13:19:01;6.37;;;5.50;;
9888;SDS011;4983;42.112;24.738;2023-03-24T13:21:29;6.57;;;5.40;;
9888;SDS011;4983;42.112;24.738;2023-03-24T13:24:00;5.57;;;5.07;;
9888;SDS011;4983;42.112;24.738;2023-03-24T13:26:31;8.37;;;5.10;;
9888;SDS011;4983;42.112;24.738;2023-03-24T13:29:09;14.53;;;5.53;;
9888;SDS011;4983;42.112;24.738;2023-03-24T13:31:39;20.67;;;6.40;;
9888;SDS011;4983;42.112;24.738;2023-03-24T13:34:12;9.00;;;5.50;;
9888;SDS011;4983;42.112;24.738;2023-03-24T13:36:45;6.83;;;4.63;;
9888;SDS011;4983;42.112;24.738;2023-03-24T13:39:14;18.53;;;5.90;;
9888;SDS011;4983;42.112;24.738;2023-03-24T13:41:46;32.90;;;7.53;;
9888;SDS011;4983;42.112;24.738;2023-03-24T13:44:16;22.80;;;6.37;;
9888;SDS011;4983;42.112;24.738;2023-03-24T13:46:43;8.87;;;5.07;;
9888;SDS011;4983;42.112;24.738;2023-03-24T13:49:24;6.53;;;4.90;;
9888;SDS011;4983;42.112;24.738;2023-03-24T13:51:54;6.87;;;4.23;;
9888;SDS011;4983;42.112;24.738;2023-03-24T13:54:21;11.13;;;5.00;;
9888;SDS011;4983;42.112;24.738;2023-03-24T13:56:51;8.13;;;4.80;;
9888;SDS011;4983;42.112;24.738;2023-03-24T13:59:25;17.80;;;5.60;;
9888;SDS011;4983;42.112;24.738;2023-03-24T14:02:08;8.07;;;5.03;;
9888;SDS011;4983;42.112;24.738;2023-03-24T14:04:43;48.03;;;9.00;;
9888;SDS011;4983;42.112;24.738;2023-03-24T14:07:29;5.77;;;4.60;;
9888;SDS011;4983;42.112;24.738;2023-03-24T14:09:57;8.13;;;4.90;;
9888;SDS011;4983;42.112;24.738;2023-03-24T14:12:24;8.63;;;4.77;;
9888;SDS011;4983;42.112;24.738;2023-03-24T14:17:46;13.90;;;5.60;;
9888;SDS011;4983;42.112;24.738;2023-03-24T14:20:24;6.03;;;4.30;;
9888;SDS011;4983;42.112;24.738;2023-03-24T14:22:52;6.13;;;4.60;;
9888;SDS011;4983;42.112;24.738;2023-03-24T14:25:23;6.87;;;4.50;;
9888;SDS011;4983;42.112;24.738;2023-03-24T14:27:50;16.27;;;4.93;;
9888;SDS011;4983;42.112;24.738;2023-03-24T14:30:18;7.47;;;4.00;;
9888;SDS011;4983;42.112;24.738;2023-03-24T14:32:47;4.67;;;4.10;;
9888;SDS011;4983;42.112;24.738;2023-03-24T14:35:21;5.33;;;4.07;;
9888;SDS011;4983;42.112;24.738;2023-03-24T14:37:50;7.23;;;4.63;;
9888;SDS011;4983;42.112;24.738;2023-03-24T14:40:24;11.40;;;4.20;;
9888;SDS011;4983;42.112;24.738;2023-03-24T14:42:52;59.27;;;9.70;;
9888;SDS011;4983;42.112;24.738;2023-03-24T14:48:15;7.77;;;4.03;;
9888;SDS011;4983;42.112;24.738;2023-03-24T14:50:47;14.13;;;4.33;;
9888;SDS011;4983;42.112;24.738;2023-03-24T14:53:16;6.73;;;4.20;;
9888;SDS011;4983;42.112;24.738;2023-03-24T14:55:45;15.37;;;4.67;;
9888;SDS011;4983;42.112;24.738;2023-03-24T14:58:20;8.07;;;4.83;;
9888;SDS011;4983;42.112;24.738;2023-03-24T15:00:49;13.67;;;4.93;;
9888;SDS011;4983;42.112;24.738;2023-03-24T15:03:17;28.60;;;6.10;;
9888;SDS011;4983;42.112;24.738;2023-03-24T15:05:48;16.70;;;4.60;;
9888;SDS011;4983;42.112;24.738;2023-03-24T15:08:16;25.53;;;5.23;;